sensor_id;sensor_type;location;lat;lon;timestamp;P1;durP1;ratioP1;P2;durP2;ratioP2
73693;SDS011;61997;53.974;11.670;2022-07-29T00:00:41;8.35;;;5.00;;
73693;SDS011;61997;53.974;11.670;2022-07-29T00:03:09;8.13;;;5.03;;
73693;SDS011;61997;53.974;11.670;2022-07-29T00:05:35;6.10;;;3.60;;
73693;SDS011;61997;53.974;11.670;2022-07-29T00:08:01;6.20;;;3.45;;
73693;SDS011;61997;53.974;11.670;2022-07-29T00:10:26;8.25;;;3.60;;
73693;SDS011;61997;53.974;11.670;2022-07-29T00:12:52;6.45;;;3.92;;
73693;SDS011;61997;53.974;11.670;2022-07-29T00:15:18;5.20;;;3.45;;
73693;SDS011;61997;53.974;11.670;2022-07-29T00:17:43;5.75;;;3.63;;
73693;SDS011;61997;53.974;11.670;2022-07-29T00:20:09;5.90;;;3.72;;
73693;SDS011;61997;53.974;11.670;2022-07-29T00:22:37;5.63;;;3.65;;
73693;SDS011;61997;53.974;11.670;2022-07-29T00:25:03;5.60;;;3.05;;
73693;SDS011;61997;53.974;11.670;2022-07-29T00:27:29;5.72;;;3.10;;
73693;SDS011;61997;53.974;11.670;2022-07-29T00:29:54;5.97;;;3.70;;
73693;SDS011;61997;53.974;11.670;2022-07-29T00:32:19;5.03;;;3.28;;
73693;SDS011;61997;53.974;11.670;2022-07-29T00:34:45;4.90;;;3.28;;
73693;SDS011;61997;53.974;11.670;2022-07-29T00:37:29;6.32;;;3.40;;
73693;SDS011;61997;53.974;11.670;2022-07-29T00:39:54;6.03;;;3.80;;
73693;SDS011;61997;53.974;11.670;2022-07-29T00:42:20;6.22;;;3.38;;
73693;SDS011;61997;53.974;11.670;2022-07-29T00:44:45;7.13;;;3.03;;
73693;SDS011;61997;53.974;11.670;2022-07-29T00:47:11;5.57;;;3.53;;
73693;SDS011;61997;53.974;11.670;2022-07-29T00:49:38;8.00;;;3.83;;
73693;SDS011;61997;53.974;11.670;2022-07-29T00:52:05;6.75;;;3.55;;
73693;SDS011;61997;53.974;11.670;2022-07-29T00:54:33;5.60;;;3.97;;
73693;SDS011;61997;53.974;11.670;2022-07-29T00:56:59;8.13;;;3.50;;
73693;SDS011;61997;53.974;11.670;2022-07-29T00:59:26;4.82;;;3.05;;
73693;SDS011;61997;53.974;11.670;2022-07-29T01:01:52;6.00;;;3.38;;
73693;SDS011;61997;53.974;11.670;2022-07-29T01:04:17;5.55;;;3.40;;
73693;SDS011;61997;53.974;11.670;2022-07-29T01:06:42;6.40;;;3.20;;
73693;SDS011;61997;53.974;11.670;2022-07-29T01:09:09;6.43;;;3.42;;
73693;SDS011;61997;53.974;11.670;2022-07-29T01:11:34;6.00;;;3.53;;
73693;SDS011;61997;53.974;11.670;2022-07-29T01:14:01;4.95;;;3.25;;
73693;SDS011;61997;53.974;11.670;2022-07-29T01:16:38;5.68;;;3.30;;
73693;SDS011;61997;53.974;11.670;2022-07-29T01:19:29;4.30;;;2.78;;
73693;SDS011;61997;53.974;11.670;2022-07-29T01:27:40;5.30;;;3.05;;
73693;SDS011;61997;53.974;11.670;2022-07-29T01:30:13;4.07;;;2.58;;
73693;SDS011;61997;53.974;11.670;2022-07-29T01:32:39;5.32;;;3.22;;
73693;SDS011;61997;53.974;11.670;2022-07-29T01:40:11;5.05;;;2.97;;
73693;SDS011;61997;53.974;11.670;2022-07-29T01:42:44;4.95;;;3.08;;
73693;SDS011;61997;53.974;11.670;2022-07-29T01:45:12;6.53;;;3.58;;
73693;SDS011;61997;53.974;11.670;2022-07-29T01:50:38;5.15;;;2.88;;
73693;SDS011;61997;53.974;11.670;2022-07-29T01:53:35;4.60;;;2.67;;
73693;SDS011;61997;53.974;11.670;2022-07-29T01:58:28;4.18;;;2.65;;
73693;SDS011;61997;53.974;11.670;2022-07-29T02:00:55;5.07;;;3.20;;
73693;SDS011;61997;53.974;11.670;2022-07-29T02:03:21;6.32;;;3.33;;
73693;SDS011;61997;53.974;11.670;2022-07-29T02:05:47;6.50;;;2.92;;
73693;SDS011;61997;53.974;11.670;2022-07-29T02:08:13;5.60;;;3.00;;
73693;SDS011;61997;53.974;11.670;2022-07-29T02:10:40;5.05;;;2.90;;
73693;SDS011;61997;53.974;11.670;2022-07-29T02:13:07;5.00;;;2.90;;
73693;SDS011;61997;53.974;11.670;2022-07-29T02:15:34;5.93;;;2.92;;
73693;SDS011;61997;53.974;11.670;2022-07-29T02:18:14;5.05;;;3.05;;
73693;SDS011;61997;53.974;11.670;2022-07-29T02:20:42;4.03;;;2.78;;
73693;SDS011;61997;53.974;11.670;2022-07-29T02:23:10;5.00;;;3.25;;
73693;SDS011;61997;53.974;11.670;2022-07-29T02:25:37;4.35;;;2.83;;
73693;SDS011;61997;53.974;11.670;2022-07-29T02:28:02;4.63;;;2.85;;
73693;SDS011;61997;53.974;11.670;2022-07-29T02:30:29;4.35;;;2.90;;
73693;SDS011;61997;53.974;11.670;2022-07-29T02:32:55;4.18;;;3.10;;
73693;SDS011;61997;53.974;11.670;2022-07-29T02:35:21;4.50;;;2.90;;
73693;SDS011;61997;53.974;11.670;2022-07-29T02:37:47;3.97;;;2.58;;
73693;SDS011;61997;53.974;11.670;2022-07-29T02:40:34;5.82;;;2.80;;
73693;SDS011;61997;53.974;11.670;2022-07-29T02:43:00;4.03;;;2.42;;
73693;SDS011;61997;53.974;11.670;2022-07-29T02:45:27;5.65;;;2.90;;
73693;SDS011;61997;53.974;11.670;2022-07-29T02:47:53;4.18;;;2.72;;
73693;SDS011;61997;53.974;11.670;2022-07-29T02:50:21;3.90;;;2.40;;
73693;SDS011;61997;53.974;11.670;2022-07-29T02:58:05;3.60;;;2.67;;
73693;SDS011;61997;53.974;11.670;2022-07-29T03:00:40;4.45;;;2.75;;
73693;SDS011;61997;53.974;11.670;2022-07-29T03:03:08;5.93;;;3.22;;
73693;SDS011;61997;53.974;11.670;2022-07-29T03:05:36;6.72;;;3.10;;
73693;SDS011;61997;53.974;11.670;2022-07-29T03:08:02;4.10;;;2.53;;
73693;SDS011;61997;53.974;11.670;2022-07-29T03:10:29;3.92;;;2.92;;
73693;SDS011;61997;53.974;11.670;2022-07-29T03:12:55;4.10;;;2.63;;
73693;SDS011;61997;53.974;11.670;2022-07-29T03:15:23;5.13;;;2.70;;
73693;SDS011;61997;53.974;11.670;2022-07-29T03:17:49;3.47;;;2.33;;
73693;SDS011;61997;53.974;11.670;2022-07-29T03:20:16;4.10;;;2.53;;
73693;SDS011;61997;53.974;11.670;2022-07-29T03:22:43;3.92;;;2.72;;
73693;SDS011;61997;53.974;11.670;2022-07-29T03:25:12;5.15;;;2.53;;
73693;SDS011;61997;53.974;11.670;2022-07-29T03:27:42;5.68;;;2.72;;
73693;SDS011;61997;53.974;11.670;2022-07-29T03:30:08;4.40;;;2.80;;
73693;SDS011;61997;53.974;11.670;2022-07-29T03:32:34;4.07;;;2.70;;
73693;SDS011;61997;53.974;11.670;2022-07-29T03:35:00;3.97;;;2.63;;
73693;SDS011;61997;53.974;11.670;2022-07-29T03:37:25;4.22;;;2.20;;
73693;SDS011;61997;53.974;11.670;2022-07-29T03:39:51;4.32;;;2.70;;
73693;SDS011;61997;53.974;11.670;2022-07-29T03:42:18;4.00;;;2.40;;
73693;SDS011;61997;53.974;11.670;2022-07-29T03:44:45;3.67;;;2.60;;
73693;SDS011;61997;53.974;11.670;2022-07-29T03:47:13;3.67;;;2.47;;
73693;SDS011;61997;53.974;11.670;2022-07-29T03:49:40;4.00;;;2.47;;
73693;SDS011;61997;53.974;11.670;2022-07-29T03:52:06;3.95;;;2.35;;
73693;SDS011;61997;53.974;11.670;2022-07-29T03:54:31;3.65;;;2.50;;
73693;SDS011;61997;53.974;11.670;2022-07-29T03:56:56;5.05;;;2.90;;
73693;SDS011;61997;53.974;11.670;2022-07-29T03:59:24;3.15;;;2.40;;
73693;SDS011;61997;53.974;11.670;2022-07-29T04:01:51;4.97;;;2.83;;
73693;SDS011;61997;53.974;11.670;2022-07-29T04:04:17;4.45;;;2.58;;
73693;SDS011;61997;53.974;11.670;2022-07-29T04:06:44;4.40;;;2.20;;
73693;SDS011;61997;53.974;11.670;2022-07-29T04:09:10;4.78;;;2.85;;
73693;SDS011;61997;53.974;11.670;2022-07-29T04:11:39;3.53;;;2.38;;
73693;SDS011;61997;53.974;11.670;2022-07-29T04:14:05;4.43;;;2.50;;
73693;SDS011;61997;53.974;11.670;2022-07-29T04:16:31;5.30;;;2.45;;
73693;SDS011;61997;53.974;11.670;2022-07-29T04:18:57;5.00;;;2.72;;
73693;SDS011;61997;53.974;11.670;2022-07-29T04:21:23;4.38;;;2.25;;
73693;SDS011;61997;53.974;11.670;2022-07-29T04:23:48;4.20;;;2.10;;
73693;SDS011;61997;53.974;11.670;2022-07-29T04:26:17;4.30;;;2.40;;
73693;SDS011;61997;53.974;11.670;2022-07-29T04:31:11;3.92;;;2.30;;
73693;SDS011;61997;53.974;11.670;2022-07-29T04:33:37;2.88;;;2.13;;
73693;SDS011;61997;53.974;11.670;2022-07-29T04:36:02;4.00;;;2.25;;
73693;SDS011;61997;53.974;11.670;2022-07-29T04:38:28;4.68;;;2.42;;
73693;SDS011;61997;53.974;11.670;2022-07-29T04:40:53;4.15;;;2.30;;
73693;SDS011;61997;53.974;11.670;2022-07-29T04:43:18;3.92;;;2.42;;
73693;SDS011;61997;53.974;11.670;2022-07-29T04:45:44;3.97;;;2.15;;
73693;SDS011;61997;53.974;11.670;2022-07-29T04:48:10;3.60;;;2.33;;
73693;SDS011;61997;53.974;11.670;2022-07-29T04:50:37;3.90;;;2.30;;
73693;SDS011;61997;53.974;11.670;2022-07-29T04:53:03;4.05;;;2.53;;
73693;SDS011;61997;53.974;11.670;2022-07-29T04:55:29;5.22;;;2.33;;
73693;SDS011;61997;53.974;11.670;2022-07-29T04:57:54;3.13;;;1.98;;
73693;SDS011;61997;53.974;11.670;2022-07-29T05:00:20;3.10;;;2.05;;
73693;SDS011;61997;53.974;11.670;2022-07-29T05:02:45;4.43;;;2.45;;
73693;SDS011;61997;53.974;11.670;2022-07-29T05:05:10;4.20;;;2.30;;
73693;SDS011;61997;53.974;11.670;2022-07-29T05:07:36;3.42;;;2.03;;
73693;SDS011;61997;53.974;11.670;2022-07-29T05:10:01;4.15;;;2.25;;
73693;SDS011;61997;53.974;11.670;2022-07-29T05:12:27;3.22;;;1.75;;
73693;SDS011;61997;53.974;11.670;2022-07-29T05:14:53;3.17;;;1.92;;
73693;SDS011;61997;53.974;11.670;2022-07-29T05:17:18;3.13;;;1.88;;
73693;SDS011;61997;53.974;11.670;2022-07-29T05:19:44;3.25;;;1.88;;
73693;SDS011;61997;53.974;11.670;2022-07-29T05:22:09;2.92;;;1.83;;
73693;SDS011;61997;53.974;11.670;2022-07-29T05:24:35;3.85;;;1.88;;
73693;SDS011;61997;53.974;11.670;2022-07-29T05:27:00;2.65;;;1.85;;
73693;SDS011;61997;53.974;11.670;2022-07-29T05:29:25;3.50;;;1.73;;
73693;SDS011;61997;53.974;11.670;2022-07-29T05:31:51;3.85;;;2.03;;
73693;SDS011;61997;53.974;11.670;2022-07-29T05:34:18;3.78;;;1.92;;
73693;SDS011;61997;53.974;11.670;2022-07-29T05:36:44;2.97;;;1.85;;
73693;SDS011;61997;53.974;11.670;2022-07-29T05:39:10;3.10;;;2.00;;
73693;SDS011;61997;53.974;11.670;2022-07-29T05:41:35;2.55;;;1.67;;
73693;SDS011;61997;53.974;11.670;2022-07-29T05:44:01;3.47;;;1.73;;
73693;SDS011;61997;53.974;11.670;2022-07-29T05:46:27;3.92;;;1.50;;
73693;SDS011;61997;53.974;11.670;2022-07-29T05:48:53;3.42;;;1.73;;
73693;SDS011;61997;53.974;11.670;2022-07-29T05:51:18;3.10;;;1.58;;
73693;SDS011;61997;53.974;11.670;2022-07-29T05:53:44;3.03;;;1.60;;
73693;SDS011;61997;53.974;11.670;2022-07-29T05:56:10;2.95;;;1.67;;
73693;SDS011;61997;53.974;11.670;2022-07-29T05:58:36;2.53;;;1.85;;
73693;SDS011;61997;53.974;11.670;2022-07-29T06:01:01;3.53;;;1.80;;
73693;SDS011;61997;53.974;11.670;2022-07-29T06:03:27;2.60;;;1.50;;
73693;SDS011;61997;53.974;11.670;2022-07-29T06:05:53;3.10;;;1.83;;
73693;SDS011;61997;53.974;11.670;2022-07-29T06:08:18;3.33;;;1.60;;
73693;SDS011;61997;53.974;11.670;2022-07-29T06:10:44;2.90;;;1.50;;
73693;SDS011;61997;53.974;11.670;2022-07-29T06:13:10;3.22;;;1.83;;
73693;SDS011;61997;53.974;11.670;2022-07-29T06:15:36;2.88;;;1.70;;
73693;SDS011;61997;53.974;11.670;2022-07-29T06:18:01;2.28;;;1.58;;
73693;SDS011;61997;53.974;11.670;2022-07-29T06:20:34;2.72;;;1.60;;
73693;SDS011;61997;53.974;11.670;2022-07-29T06:22:59;3.95;;;1.50;;
73693;SDS011;61997;53.974;11.670;2022-07-29T06:25:26;3.42;;;1.98;;
73693;SDS011;61997;53.974;11.670;2022-07-29T06:27:55;2.60;;;1.33;;
73693;SDS011;61997;53.974;11.670;2022-07-29T06:30:21;3.53;;;1.58;;
73693;SDS011;61997;53.974;11.670;2022-07-29T06:32:46;2.97;;;1.80;;
73693;SDS011;61997;53.974;11.670;2022-07-29T06:35:12;3.13;;;1.63;;
73693;SDS011;61997;53.974;11.670;2022-07-29T06:37:37;2.05;;;1.42;;
73693;SDS011;61997;53.974;11.670;2022-07-29T06:40:03;1.95;;;1.58;;
73693;SDS011;61997;53.974;11.670;2022-07-29T06:42:47;3.15;;;1.42;;
73693;SDS011;61997;53.974;11.670;2022-07-29T06:45:12;2.15;;;1.52;;
73693;SDS011;61997;53.974;11.670;2022-07-29T06:47:38;2.05;;;1.50;;
73693;SDS011;61997;53.974;11.670;2022-07-29T06:50:03;3.58;;;1.60;;
73693;SDS011;61997;53.974;11.670;2022-07-29T06:52:29;2.20;;;1.52;;
73693;SDS011;61997;53.974;11.670;2022-07-29T06:54:55;1.67;;;1.30;;
73693;SDS011;61997;53.974;11.670;2022-07-29T06:57:20;2.08;;;1.30;;
73693;SDS011;61997;53.974;11.670;2022-07-29T06:59:46;2.58;;;1.50;;
73693;SDS011;61997;53.974;11.670;2022-07-29T07:02:12;2.13;;;1.50;;
73693;SDS011;61997;53.974;11.670;2022-07-29T07:04:38;2.97;;;1.52;;
73693;SDS011;61997;53.974;11.670;2022-07-29T07:07:03;2.00;;;1.42;;
73693;SDS011;61997;53.974;11.670;2022-07-29T07:09:28;2.72;;;1.50;;
73693;SDS011;61997;53.974;11.670;2022-07-29T07:11:54;3.03;;;1.58;;
73693;SDS011;61997;53.974;11.670;2022-07-29T07:14:19;2.53;;;1.30;;
73693;SDS011;61997;53.974;11.670;2022-07-29T07:16:45;2.15;;;1.23;;
73693;SDS011;61997;53.974;11.670;2022-07-29T07:19:10;3.35;;;1.40;;
73693;SDS011;61997;53.974;11.670;2022-07-29T07:21:35;3.25;;;1.70;;
73693;SDS011;61997;53.974;11.670;2022-07-29T07:24:02;2.15;;;1.25;;
73693;SDS011;61997;53.974;11.670;2022-07-29T07:26:28;2.20;;;1.40;;
73693;SDS011;61997;53.974;11.670;2022-07-29T07:28:53;2.22;;;1.42;;
73693;SDS011;61997;53.974;11.670;2022-07-29T07:31:19;2.22;;;1.30;;
73693;SDS011;61997;53.974;11.670;2022-07-29T07:33:46;2.97;;;1.30;;
73693;SDS011;61997;53.974;11.670;2022-07-29T07:36:11;3.78;;;1.60;;
73693;SDS011;61997;53.974;11.670;2022-07-29T07:38:37;3.00;;;1.67;;
73693;SDS011;61997;53.974;11.670;2022-07-29T07:41:02;2.35;;;1.23;;
73693;SDS011;61997;53.974;11.670;2022-07-29T07:43:28;2.42;;;1.23;;
73693;SDS011;61997;53.974;11.670;2022-07-29T07:45:54;2.20;;;1.45;;
73693;SDS011;61997;53.974;11.670;2022-07-29T07:48:20;1.90;;;1.30;;
73693;SDS011;61997;53.974;11.670;2022-07-29T07:50:46;1.85;;;1.10;;
73693;SDS011;61997;53.974;11.670;2022-07-29T07:53:14;2.78;;;1.30;;
73693;SDS011;61997;53.974;11.670;2022-07-29T07:55:40;2.10;;;1.48;;
73693;SDS011;61997;53.974;11.670;2022-07-29T07:58:06;1.85;;;1.33;;
73693;SDS011;61997;53.974;11.670;2022-07-29T08:00:32;1.70;;;1.30;;
73693;SDS011;61997;53.974;11.670;2022-07-29T08:02:57;2.60;;;1.40;;
73693;SDS011;61997;53.974;11.670;2022-07-29T08:05:23;1.92;;;1.33;;
73693;SDS011;61997;53.974;11.670;2022-07-29T08:07:48;2.10;;;1.27;;
73693;SDS011;61997;53.974;11.670;2022-07-29T08:10:14;2.45;;;1.25;;
73693;SDS011;61997;53.974;11.670;2022-07-29T08:13:02;2.00;;;1.40;;
73693;SDS011;61997;53.974;11.670;2022-07-29T08:15:31;2.13;;;1.20;;
73693;SDS011;61997;53.974;11.670;2022-07-29T08:17:59;4.35;;;1.52;;
73693;SDS011;61997;53.974;11.670;2022-07-29T08:20:24;2.13;;;1.40;;
73693;SDS011;61997;53.974;11.670;2022-07-29T08:22:50;2.22;;;1.23;;
73693;SDS011;61997;53.974;11.670;2022-07-29T08:25:17;3.50;;;1.50;;
73693;SDS011;61997;53.974;11.670;2022-07-29T08:27:45;2.70;;;1.50;;
73693;SDS011;61997;53.974;11.670;2022-07-29T08:30:11;2.78;;;1.33;;
73693;SDS011;61997;53.974;11.670;2022-07-29T08:32:37;1.80;;;1.15;;
73693;SDS011;61997;53.974;11.670;2022-07-29T08:35:02;2.65;;;1.60;;
73693;SDS011;61997;53.974;11.670;2022-07-29T08:37:28;2.40;;;1.30;;
73693;SDS011;61997;53.974;11.670;2022-07-29T08:39:54;2.42;;;1.30;;
73693;SDS011;61997;53.974;11.670;2022-07-29T08:42:19;3.75;;;1.58;;
73693;SDS011;61997;53.974;11.670;2022-07-29T08:44:45;2.00;;;1.25;;
73693;SDS011;61997;53.974;11.670;2022-07-29T08:47:13;2.17;;;1.33;;
73693;SDS011;61997;53.974;11.670;2022-07-29T08:49:39;2.75;;;1.30;;
73693;SDS011;61997;53.974;11.670;2022-07-29T08:52:05;3.78;;;1.30;;
73693;SDS011;61997;53.974;11.670;2022-07-29T08:54:31;2.60;;;1.30;;
73693;SDS011;61997;53.974;11.670;2022-07-29T08:56:57;2.22;;;1.50;;
73693;SDS011;61997;53.974;11.670;2022-07-29T08:59:24;2.40;;;1.73;;
73693;SDS011;61997;53.974;11.670;2022-07-29T09:01:52;2.50;;;1.58;;
73693;SDS011;61997;53.974;11.670;2022-07-29T09:04:18;2.72;;;1.30;;
73693;SDS011;61997;53.974;11.670;2022-07-29T09:06:47;3.05;;;1.50;;
73693;SDS011;61997;53.974;11.670;2022-07-29T09:09:15;2.55;;;1.48;;
73693;SDS011;61997;53.974;11.670;2022-07-29T09:11:41;3.72;;;1.63;;
73693;SDS011;61997;53.974;11.670;2022-07-29T09:14:07;4.15;;;1.60;;
73693;SDS011;61997;53.974;11.670;2022-07-29T09:17:15;2.35;;;1.50;;
73693;SDS011;61997;53.974;11.670;2022-07-29T09:19:22;3.08;;;1.63;;
73693;SDS011;61997;53.974;11.670;2022-07-29T09:21:52;2.78;;;1.50;;
73693;SDS011;61997;53.974;11.670;2022-07-29T09:24:27;2.58;;;1.38;;
73693;SDS011;61997;53.974;11.670;2022-07-29T09:27:20;2.78;;;1.50;;
73693;SDS011;61997;53.974;11.670;2022-07-29T09:29:47;3.30;;;1.50;;
73693;SDS011;61997;53.974;11.670;2022-07-29T09:32:26;2.55;;;1.55;;
73693;SDS011;61997;53.974;11.670;2022-07-29T09:35:15;2.80;;;1.67;;
73693;SDS011;61997;53.974;11.670;2022-07-29T09:37:41;3.10;;;1.45;;
73693;SDS011;61997;53.974;11.670;2022-07-29T09:40:12;4.32;;;1.50;;
73693;SDS011;61997;53.974;11.670;2022-07-29T09:42:40;2.65;;;1.50;;
73693;SDS011;61997;53.974;11.670;2022-07-29T09:45:06;2.67;;;1.52;;
73693;SDS011;61997;53.974;11.670;2022-07-29T09:47:43;2.65;;;1.58;;
73693;SDS011;61997;53.974;11.670;2022-07-29T09:50:10;2.58;;;1.10;;
73693;SDS011;61997;53.974;11.670;2022-07-29T09:52:46;2.17;;;1.33;;
73693;SDS011;61997;53.974;11.670;2022-07-29T09:55:13;4.15;;;2.08;;
73693;SDS011;61997;53.974;11.670;2022-07-29T09:57:41;3.80;;;1.73;;
73693;SDS011;61997;53.974;11.670;2022-07-29T10:00:11;2.22;;;1.60;;
73693;SDS011;61997;53.974;11.670;2022-07-29T10:02:43;2.20;;;1.60;;
73693;SDS011;61997;53.974;11.670;2022-07-29T10:05:17;1.83;;;1.33;;
73693;SDS011;61997;53.974;11.670;2022-07-29T10:07:54;4.55;;;1.58;;
73693;SDS011;61997;53.974;11.670;2022-07-29T10:10:22;2.08;;;1.30;;
73693;SDS011;61997;53.974;11.670;2022-07-29T10:12:58;2.25;;;1.55;;
73693;SDS011;61997;53.974;11.670;2022-07-29T10:15:26;3.05;;;1.30;;
73693;SDS011;61997;53.974;11.670;2022-07-29T10:17:56;2.30;;;2.05;;
73693;SDS011;61997;53.974;11.670;2022-07-29T10:20:23;2.55;;;1.63;;
73693;SDS011;61997;53.974;11.670;2022-07-29T10:22:49;2.65;;;1.50;;
73693;SDS011;61997;53.974;11.670;2022-07-29T10:25:16;2.53;;;1.50;;
73693;SDS011;61997;53.974;11.670;2022-07-29T10:27:43;2.50;;;1.48;;
73693;SDS011;61997;53.974;11.670;2022-07-29T10:30:09;2.63;;;1.48;;
73693;SDS011;61997;53.974;11.670;2022-07-29T10:35:11;2.78;;;1.63;;
73693;SDS011;61997;53.974;11.670;2022-07-29T10:37:41;2.22;;;1.45;;
73693;SDS011;61997;53.974;11.670;2022-07-29T10:43:28;2.00;;;1.30;;
73693;SDS011;61997;53.974;11.670;2022-07-29T10:45:55;2.15;;;1.30;;
73693;SDS011;61997;53.974;11.670;2022-07-29T10:48:23;3.22;;;1.60;;
73693;SDS011;61997;53.974;11.670;2022-07-29T10:50:56;3.40;;;1.80;;
73693;SDS011;61997;53.974;11.670;2022-07-29T10:56:29;3.88;;;1.65;;
73693;SDS011;61997;53.974;11.670;2022-07-29T11:02:41;3.30;;;1.67;;
73693;SDS011;61997;53.974;11.670;2022-07-29T11:05:03;2.50;;;1.58;;
73693;SDS011;61997;53.974;11.670;2022-07-29T11:07:37;2.83;;;1.70;;
73693;SDS011;61997;53.974;11.670;2022-07-29T11:15:04;3.75;;;1.70;;
73693;SDS011;61997;53.974;11.670;2022-07-29T11:20:44;3.35;;;1.98;;
73693;SDS011;61997;53.974;11.670;2022-07-29T11:23:18;2.17;;;1.60;;
73693;SDS011;61997;53.974;11.670;2022-07-29T11:28:42;3.45;;;1.88;;
73693;SDS011;61997;53.974;11.670;2022-07-29T11:31:40;3.15;;;1.70;;
73693;SDS011;61997;53.974;11.670;2022-07-29T11:34:19;2.25;;;1.55;;
73693;SDS011;61997;53.974;11.670;2022-07-29T11:39:34;2.70;;;1.30;;
73693;SDS011;61997;53.974;11.670;2022-07-29T11:47:36;2.33;;;1.52;;
73693;SDS011;61997;53.974;11.670;2022-07-29T11:50:06;3.15;;;1.70;;
73693;SDS011;61997;53.974;11.670;2022-07-29T11:52:37;2.65;;;1.60;;
73693;SDS011;61997;53.974;11.670;2022-07-29T11:55:14;2.60;;;1.45;;
73693;SDS011;61997;53.974;11.670;2022-07-29T11:57:47;3.08;;;1.60;;
73693;SDS011;61997;53.974;11.670;2022-07-29T12:00:36;3.05;;;1.83;;
73693;SDS011;61997;53.974;11.670;2022-07-29T12:03:06;3.33;;;1.50;;
73693;SDS011;61997;53.974;11.670;2022-07-29T12:05:38;3.08;;;1.70;;
73693;SDS011;61997;53.974;11.670;2022-07-29T12:10:37;3.58;;;1.70;;
73693;SDS011;61997;53.974;11.670;2022-07-29T12:13:03;2.28;;;1.60;;
73693;SDS011;61997;53.974;11.670;2022-07-29T12:15:31;2.25;;;1.60;;
73693;SDS011;61997;53.974;11.670;2022-07-29T12:17:58;2.65;;;1.83;;
73693;SDS011;61997;53.974;11.670;2022-07-29T12:20:29;2.88;;;1.60;;
73693;SDS011;61997;53.974;11.670;2022-07-29T12:22:56;2.80;;;1.70;;
73693;SDS011;61997;53.974;11.670;2022-07-29T12:25:23;2.03;;;1.25;;
73693;SDS011;61997;53.974;11.670;2022-07-29T12:27:59;2.47;;;1.33;;
73693;SDS011;61997;53.974;11.670;2022-07-29T12:30:47;2.40;;;1.50;;
73693;SDS011;61997;53.974;11.670;2022-07-29T12:33:16;2.20;;;1.58;;
73693;SDS011;61997;53.974;11.670;2022-07-29T12:35:45;2.72;;;1.40;;
73693;SDS011;61997;53.974;11.670;2022-07-29T12:38:12;3.38;;;1.73;;
73693;SDS011;61997;53.974;11.670;2022-07-29T12:40:38;3.42;;;1.52;;
73693;SDS011;61997;53.974;11.670;2022-07-29T12:43:11;2.53;;;1.95;;
73693;SDS011;61997;53.974;11.670;2022-07-29T12:45:45;3.45;;;1.50;;
73693;SDS011;61997;53.974;11.670;2022-07-29T12:48:11;2.55;;;1.50;;
73693;SDS011;61997;53.974;11.670;2022-07-29T12:50:57;3.80;;;1.60;;
73693;SDS011;61997;53.974;11.670;2022-07-29T12:53:24;4.90;;;1.63;;
73693;SDS011;61997;53.974;11.670;2022-07-29T12:55:50;3.25;;;1.63;;
73693;SDS011;61997;53.974;11.670;2022-07-29T13:01:02;2.92;;;1.33;;
73693;SDS011;61997;53.974;11.670;2022-07-29T13:11:43;3.65;;;1.48;;
73693;SDS011;61997;53.974;11.670;2022-07-29T13:14:10;1.90;;;1.40;;
73693;SDS011;61997;53.974;11.670;2022-07-29T13:17:00;3.08;;;1.35;;
73693;SDS011;61997;53.974;11.670;2022-07-29T13:22:18;1.95;;;1.55;;
73693;SDS011;61997;53.974;11.670;2022-07-29T13:24:54;2.83;;;1.80;;
73693;SDS011;61997;53.974;11.670;2022-07-29T13:27:23;2.05;;;1.30;;
73693;SDS011;61997;53.974;11.670;2022-07-29T13:29:51;3.80;;;1.70;;
73693;SDS011;61997;53.974;11.670;2022-07-29T13:32:17;2.05;;;1.40;;
73693;SDS011;61997;53.974;11.670;2022-07-29T13:34:46;2.38;;;1.30;;
73693;SDS011;61997;53.974;11.670;2022-07-29T13:37:11;3.83;;;1.58;;
73693;SDS011;61997;53.974;11.670;2022-07-29T13:39:37;4.05;;;1.50;;
73693;SDS011;61997;53.974;11.670;2022-07-29T13:42:03;2.03;;;1.25;;
73693;SDS011;61997;53.974;11.670;2022-07-29T13:44:29;2.00;;;1.50;;
73693;SDS011;61997;53.974;11.670;2022-07-29T13:46:54;2.78;;;1.40;;
73693;SDS011;61997;53.974;11.670;2022-07-29T13:49:20;3.60;;;1.90;;
73693;SDS011;61997;53.974;11.670;2022-07-29T13:51:48;3.03;;;1.40;;
73693;SDS011;61997;53.974;11.670;2022-07-29T13:54:14;3.30;;;1.58;;
73693;SDS011;61997;53.974;11.670;2022-07-29T13:56:39;3.05;;;1.40;;
73693;SDS011;61997;53.974;11.670;2022-07-29T13:59:05;2.30;;;1.55;;
73693;SDS011;61997;53.974;11.670;2022-07-29T14:01:30;2.22;;;1.20;;
73693;SDS011;61997;53.974;11.670;2022-07-29T14:03:55;3.50;;;1.50;;
73693;SDS011;61997;53.974;11.670;2022-07-29T14:06:21;2.40;;;1.58;;
73693;SDS011;61997;53.974;11.670;2022-07-29T14:08:47;3.10;;;1.60;;
73693;SDS011;61997;53.974;11.670;2022-07-29T14:11:12;3.63;;;1.38;;
73693;SDS011;61997;53.974;11.670;2022-07-29T14:13:38;2.70;;;1.50;;
73693;SDS011;61997;53.974;11.670;2022-07-29T14:16:03;2.55;;;1.63;;
73693;SDS011;61997;53.974;11.670;2022-07-29T14:18:29;2.67;;;1.50;;
73693;SDS011;61997;53.974;11.670;2022-07-29T14:20:54;2.88;;;1.67;;
73693;SDS011;61997;53.974;11.670;2022-07-29T14:23:20;3.03;;;1.48;;
73693;SDS011;61997;53.974;11.670;2022-07-29T14:25:46;2.10;;;1.50;;
73693;SDS011;61997;53.974;11.670;2022-07-29T14:28:14;4.40;;;1.98;;
73693;SDS011;61997;53.974;11.670;2022-07-29T14:30:42;2.88;;;1.52;;
73693;SDS011;61997;53.974;11.670;2022-07-29T14:33:08;2.10;;;1.42;;
73693;SDS011;61997;53.974;11.670;2022-07-29T14:35:33;3.05;;;1.58;;
73693;SDS011;61997;53.974;11.670;2022-07-29T14:37:59;2.55;;;1.55;;
73693;SDS011;61997;53.974;11.670;2022-07-29T14:40:24;3.00;;;1.60;;
73693;SDS011;61997;53.974;11.670;2022-07-29T14:42:50;3.78;;;1.48;;
73693;SDS011;61997;53.974;11.670;2022-07-29T14:45:16;5.00;;;1.80;;
73693;SDS011;61997;53.974;11.670;2022-07-29T14:47:43;3.40;;;1.50;;
73693;SDS011;61997;53.974;11.670;2022-07-29T14:51:10;3.08;;;1.55;;
73693;SDS011;61997;53.974;11.670;2022-07-29T14:53:59;4.40;;;2.03;;
73693;SDS011;61997;53.974;11.670;2022-07-29T14:56:25;3.10;;;1.80;;
73693;SDS011;61997;53.974;11.670;2022-07-29T14:58:52;5.13;;;1.55;;
73693;SDS011;61997;53.974;11.670;2022-07-29T15:01:18;5.40;;;1.92;;
73693;SDS011;61997;53.974;11.670;2022-07-29T15:03:43;4.18;;;1.60;;
73693;SDS011;61997;53.974;11.670;2022-07-29T15:06:09;3.75;;;1.88;;
73693;SDS011;61997;53.974;11.670;2022-07-29T15:08:35;5.60;;;1.60;;
73693;SDS011;61997;53.974;11.670;2022-07-29T15:11:00;2.90;;;1.92;;
73693;SDS011;61997;53.974;11.670;2022-07-29T15:13:26;3.28;;;1.52;;
73693;SDS011;61997;53.974;11.670;2022-07-29T15:15:51;3.42;;;1.50;;
73693;SDS011;61997;53.974;11.670;2022-07-29T15:18:17;3.58;;;1.55;;
73693;SDS011;61997;53.974;11.670;2022-07-29T15:20:42;3.90;;;1.95;;
73693;SDS011;61997;53.974;11.670;2022-07-29T15:23:10;5.07;;;1.73;;
73693;SDS011;61997;53.974;11.670;2022-07-29T15:25:37;3.40;;;1.50;;
73693;SDS011;61997;53.974;11.670;2022-07-29T15:28:03;3.42;;;1.80;;
73693;SDS011;61997;53.974;11.670;2022-07-29T15:32:57;1.80;;;1.20;;
73693;SDS011;61997;53.974;11.670;2022-07-29T15:35:23;4.75;;;1.80;;
73693;SDS011;61997;53.974;11.670;2022-07-29T15:37:48;1.92;;;1.35;;
73693;SDS011;61997;53.974;11.670;2022-07-29T15:40:16;3.55;;;1.45;;
73693;SDS011;61997;53.974;11.670;2022-07-29T15:42:41;4.10;;;1.92;;
73693;SDS011;61997;53.974;11.670;2022-07-29T15:45:07;2.75;;;1.55;;
73693;SDS011;61997;53.974;11.670;2022-07-29T15:47:34;3.22;;;1.58;;
73693;SDS011;61997;53.974;11.670;2022-07-29T15:50:00;4.05;;;2.10;;
73693;SDS011;61997;53.974;11.670;2022-07-29T15:52:25;1.60;;;1.30;;